sensor_id;sensor_type;location;lat;lon;timestamp;pressure;altitude;pressure_sealevel;temperature;humidity
39491;BME280;25175;50.140;18.990;2023-02-13T00:02:10;100514.09;;;1.99;67.17
39491;BME280;25175;50.140;18.990;2023-02-13T00:05:17;100514.00;;;2.01;67.17
39491;BME280;25175;50.140;18.990;2023-02-13T00:08:25;100498.44;;;1.88;67.10
39491;BME280;25175;50.140;18.990;2023-02-13T00:11:35;100525.38;;;1.98;67.16
39491;BME280;25175;50.140;18.990;2023-02-13T00:14:42;100531.16;;;2.02;67.42
39491;BME280;25175;50.140;18.990;2023-02-13T00:18:02;100571.88;;;2.00;67.12
39491;BME280;25175;50.140;18.990;2023-02-13T00:21:13;100524.63;;;2.09;67.22
39491;BME280;25175;50.140;18.990;2023-02-13T00:24:54;100520.91;;;2.13;67.28
39491;BME280;25175;50.140;18.990;2023-02-13T00:28:03;100409.44;;;1.41;67.07
39491;BME280;25175;50.140;18.990;2023-02-13T00:34:29;100513.22;;;2.24;67.08
39491;BME280;25175;50.140;18.990;2023-02-13T00:37:47;100520.06;;;2.25;66.95
39491;BME280;25175;50.140;18.990;2023-02-13T00:41:02;100518.41;;;2.24;66.95
39491;BME280;25175;50.140;18.990;2023-02-13T00:44:11;100517.81;;;2.20;67.37
39491;BME280;25175;50.140;18.990;2023-02-13T00:47:19;100514.28;;;2.21;67.53
39491;BME280;25175;50.140;18.990;2023-02-13T00:50:28;100490.06;;;2.10;67.61
39491;BME280;25175;50.140;18.990;2023-02-13T00:53:36;100508.56;;;2.29;67.40
39491;BME280;25175;50.140;18.990;2023-02-13T01:01:17;100509.28;;;2.31;67.78
39491;BME280;25175;50.140;18.990;2023-02-13T01:12:50;100495.28;;;2.33;67.94
39491;BME280;25175;50.140;18.990;2023-02-13T01:15:55;100505.78;;;2.32;68.41
39491;BME280;25175;50.140;18.990;2023-02-13T01:19:30;100204.59;;;0.50;68.10
39491;BME280;25175;50.140;18.990;2023-02-13T01:22:41;100492.69;;;2.33;68.35
39491;BME280;25175;50.140;18.990;2023-02-13T01:25:47;100493.53;;;2.34;68.36
39491;BME280;25175;50.140;18.990;2023-02-13T01:28:54;100480.47;;;2.35;68.32
39491;BME280;25175;50.140;18.990;2023-02-13T01:32:00;100478.84;;;2.34;68.11
39491;BME280;25175;50.140;18.990;2023-02-13T01:35:11;100480.47;;;2.35;68.40
39491;BME280;25175;50.140;18.990;2023-02-13T01:38:19;100479.66;;;2.35;68.56
39491;BME280;25175;50.140;18.990;2023-02-13T01:41:31;100473.94;;;2.30;68.17
39491;BME280;25175;50.140;18.990;2023-02-13T01:44:47;100467.13;;;2.29;68.71
39491;BME280;25175;50.140;18.990;2023-02-13T01:47:58;100477.69;;;2.26;68.82
39491;BME280;25175;50.140;18.990;2023-02-13T01:51:15;100441.78;;;2.09;68.85
39491;BME280;25175;50.140;18.990;2023-02-13T01:54:27;100472.09;;;2.32;68.94
39491;BME280;25175;50.140;18.990;2023-02-13T01:57:40;100463.50;;;2.31;68.60
39491;BME280;25175;50.140;18.990;2023-02-13T02:00:55;100474.63;;;2.44;68.60
39491;BME280;25175;50.140;18.990;2023-02-13T02:04:12;100454.50;;;2.48;68.35
39491;BME280;25175;50.140;18.990;2023-02-13T02:07:30;100457.00;;;2.49;68.54
39491;BME280;25175;50.140;18.990;2023-02-13T02:10:45;100461.97;;;2.52;68.27
39491;BME280;25175;50.140;18.990;2023-02-13T02:13:57;100465.28;;;2.54;68.23
39491;BME280;25175;50.140;18.990;2023-02-13T02:17:11;100417.47;;;2.35;68.40
39491;BME280;25175;50.140;18.990;2023-02-13T02:20:45;100454.81;;;2.56;68.62
39491;BME280;25175;50.140;18.990;2023-02-13T02:24:53;100462.50;;;2.57;68.97
39491;BME280;25175;50.140;18.990;2023-02-13T02:28:56;100451.28;;;2.57;69.09
39491;BME280;25175;50.140;18.990;2023-02-13T02:32:39;100437.53;;;2.56;69.02
39491;BME280;25175;50.140;18.990;2023-02-13T02:36:36;100451.19;;;2.58;69.09
39491;BME280;25175;50.140;18.990;2023-02-13T02:40:35;100432.53;;;2.53;69.06
39491;BME280;25175;50.140;18.990;2023-02-13T02:44:03;100450.84;;;2.63;69.13
39491;BME280;25175;50.140;18.990;2023-02-13T02:47:28;100443.06;;;2.63;69.33
39491;BME280;25175;50.140;18.990;2023-02-13T02:55:14;100442.53;;;2.70;69.38
39491;BME280;25175;50.140;18.990;2023-02-13T03:02:22;100459.97;;;2.68;69.22
39491;BME280;25175;50.140;18.990;2023-02-13T03:06:19;100456.53;;;2.68;69.67
39491;BME280;25175;50.140;18.990;2023-02-13T03:09:39;100418.75;;;2.53;69.45
39491;BME280;25175;50.140;18.990;2023-02-13T03:13:13;100445.56;;;2.64;69.41
39491;BME280;25175;50.140;18.990;2023-02-13T03:16:42;100497.56;;;2.74;69.54
39491;BME280;25175;50.140;18.990;2023-02-13T03:20:22;100452.34;;;2.78;69.20
39491;BME280;25175;50.140;18.990;2023-02-13T03:24:12;100462.47;;;2.81;69.17
39491;BME280;25175;50.140;18.990;2023-02-13T03:27:41;100521.06;;;2.83;69.39
39491;BME280;25175;50.140;18.990;2023-02-13T03:31:29;100461.22;;;2.86;69.11
39491;BME280;25175;50.140;18.990;2023-02-13T03:35:03;100445.50;;;2.77;69.42
39491;BME280;25175;50.140;18.990;2023-02-13T03:39:07;100435.94;;;2.77;69.16
39491;BME280;25175;50.140;18.990;2023-02-13T03:42:29;100455.31;;;2.84;69.16
39491;BME280;25175;50.140;18.990;2023-02-13T03:45:47;100446.91;;;2.81;69.39
39491;BME280;25175;50.140;18.990;2023-02-13T03:49:06;100441.28;;;2.76;69.68
39491;BME280;25175;50.140;18.990;2023-02-13T03:57:18;100457.03;;;2.73;69.98
39491;BME280;25175;50.140;18.990;2023-02-13T04:00:50;100451.63;;;2.76;69.62
39491;BME280;25175;50.140;18.990;2023-02-13T04:04:09;100454.94;;;2.78;69.99
39491;BME280;25175;50.140;18.990;2023-02-13T04:07:46;100440.94;;;2.80;69.84
39491;BME280;25175;50.140;18.990;2023-02-13T04:11:02;100447.66;;;2.83;69.96
39491;BME280;25175;50.140;18.990;2023-02-13T04:14:27;100446.50;;;2.87;69.88
39491;BME280;25175;50.140;18.990;2023-02-13T04:17:46;100444.72;;;2.87;69.97
39491;BME280;25175;50.140;18.990;2023-02-13T04:21:01;100441.78;;;2.92;69.99
39491;BME280;25175;50.140;18.990;2023-02-13T04:24:10;100031.06;;;0.45;69.59
39491;BME280;25175;50.140;18.990;2023-02-13T04:27:22;100120.19;;;0.99;69.47
39491;BME280;25175;50.140;18.990;2023-02-13T04:30:35;100449.59;;;3.03;69.68
39491;BME280;25175;50.140;18.990;2023-02-13T04:33:56;100451.03;;;3.07;69.61
39491;BME280;25175;50.140;18.990;2023-02-13T04:37:03;100128.00;;;1.10;69.70
39491;BME280;25175;50.140;18.990;2023-02-13T04:40:11;100446.69;;;3.07;69.50
39491;BME280;25175;50.140;18.990;2023-02-13T04:43:21;100447.41;;;3.09;69.68
39491;BME280;25175;50.140;18.990;2023-02-13T04:46:30;100450.94;;;3.08;69.87
39491;BME280;25175;50.140;18.990;2023-02-13T04:49:41;100442.22;;;3.09;69.49
39491;BME280;25175;50.140;18.990;2023-02-13T04:52:59;100437.75;;;3.11;69.54
39491;BME280;25175;50.140;18.990;2023-02-13T04:56:09;100432.09;;;3.06;69.45
39491;BME280;25175;50.140;18.990;2023-02-13T04:59:19;100440.00;;;3.16;69.41
39491;BME280;25175;50.140;18.990;2023-02-13T05:02:40;100449.22;;;3.20;69.14
39491;BME280;25175;50.140;18.990;2023-02-13T05:05:47;100455.13;;;3.22;69.41
39491;BME280;25175;50.140;18.990;2023-02-13T05:08:59;100448.75;;;3.26;68.90
39491;BME280;25175;50.140;18.990;2023-02-13T05:12:08;100439.75;;;3.19;68.67
39491;BME280;25175;50.140;18.990;2023-02-13T05:15:21;100449.25;;;3.31;68.79
39491;BME280;25175;50.140;18.990;2023-02-13T05:18:45;100319.22;;;2.55;68.48
39491;BME280;25175;50.140;18.990;2023-02-13T05:21:59;100445.44;;;3.24;68.80
39491;BME280;25175;50.140;18.990;2023-02-13T05:25:20;100445.78;;;3.19;69.06
39491;BME280;25175;50.140;18.990;2023-02-13T05:28:31;100445.19;;;3.16;69.02
39491;BME280;25175;50.140;18.990;2023-02-13T05:31:55;100443.75;;;3.12;69.28
39491;BME280;25175;50.140;18.990;2023-02-13T05:35:20;100400.03;;;2.84;69.24
39491;BME280;25175;50.140;18.990;2023-02-13T05:38:28;100444.81;;;3.09;69.24
39491;BME280;25175;50.140;18.990;2023-02-13T05:41:52;100453.75;;;3.05;69.57
39491;BME280;25175;50.140;18.990;2023-02-13T05:45:05;100445.16;;;3.05;69.55
39491;BME280;25175;50.140;18.990;2023-02-13T05:48:12;100439.03;;;3.06;69.82
39491;BME280;25175;50.140;18.990;2023-02-13T05:51:57;100433.13;;;3.04;69.70
39491;BME280;25175;50.140;18.990;2023-02-13T05:55:08;100432.28;;;3.03;69.58
39491;BME280;25175;50.140;18.990;2023-02-13T05:58:22;100447.75;;;3.05;69.76
39491;BME280;25175;50.140;18.990;2023-02-13T06:09:44;100451.66;;;3.10;69.58
39491;BME280;25175;50.140;18.990;2023-02-13T06:13:10;99988.94;;;0.32;69.34
39491;BME280;25175;50.140;18.990;2023-02-13T06:20:14;100234.44;;;1.88;69.12
39491;BME280;25175;50.140;18.990;2023-02-13T06:23:33;100463.09;;;3.19;69.28
39491;BME280;25175;50.140;18.990;2023-02-13T06:27:03;100472.69;;;3.18;68.97
39491;BME280;25175;50.140;18.990;2023-02-13T06:30:15;100475.03;;;3.21;69.33
39491;BME280;25175;50.140;18.990;2023-02-13T06:36:56;100471.16;;;3.27;69.01
39491;BME280;25175;50.140;18.990;2023-02-13T06:40:04;100461.13;;;3.22;69.08
39491;BME280;25175;50.140;18.990;2023-02-13T06:43:16;100469.84;;;3.21;69.09
39491;BME280;25175;50.140;18.990;2023-02-13T06:46:25;100467.59;;;3.17;69.17
39491;BME280;25175;50.140;18.990;2023-02-13T06:49:31;100461.81;;;3.13;69.37
39491;BME280;25175;50.140;18.990;2023-02-13T06:52:45;100452.19;;;3.03;69.41
39491;BME280;25175;50.140;18.990;2023-02-13T06:56:15;100460.84;;;3.14;69.29
39491;BME280;25175;50.140;18.990;2023-02-13T07:03:04;100459.81;;;3.17;69.59
39491;BME280;25175;50.140;18.990;2023-02-13T07:06:19;100467.38;;;3.20;69.49
39491;BME280;25175;50.140;18.990;2023-02-13T07:09:34;100459.34;;;3.23;69.35
39491;BME280;25175;50.140;18.990;2023-02-13T07:12:46;100463.72;;;3.22;69.38
39491;BME280;25175;50.140;18.990;2023-02-13T07:16:04;100478.47;;;3.22;69.43
39491;BME280;25175;50.140;18.990;2023-02-13T07:19:34;100478.22;;;3.25;69.37
39491;BME280;25175;50.140;18.990;2023-02-13T07:22:45;100465.03;;;3.28;69.44
39491;BME280;25175;50.140;18.990;2023-02-13T07:25:58;100430.78;;;3.12;69.33
39491;BME280;25175;50.140;18.990;2023-02-13T07:29:46;100465.53;;;3.33;69.12
39491;BME280;25175;50.140;18.990;2023-02-13T07:32:52;100463.03;;;3.31;68.94
39491;BME280;25175;50.140;18.990;2023-02-13T07:36:09;100472.38;;;3.34;69.23
39491;BME280;25175;50.140;18.990;2023-02-13T07:39:21;100462.56;;;3.37;69.25
39491;BME280;25175;50.140;18.990;2023-02-13T07:46:21;100460.09;;;3.36;69.49
39491;BME280;25175;50.140;18.990;2023-02-13T07:49:34;100473.06;;;3.36;69.51
39491;BME280;25175;50.140;18.990;2023-02-13T07:52:57;100472.38;;;3.34;69.72
39491;BME280;25175;50.140;18.990;2023-02-13T07:56:08;100472.00;;;3.38;69.75
39491;BME280;25175;50.140;18.990;2023-02-13T07:59:17;100465.31;;;3.47;70.07
39491;BME280;25175;50.140;18.990;2023-02-13T08:02:28;100458.94;;;3.51;69.74
39491;BME280;25175;50.140;18.990;2023-02-13T08:05:38;99998.94;;;0.72;69.15
39491;BME280;25175;50.140;18.990;2023-02-13T08:08:52;100423.75;;;3.36;69.58
39491;BME280;25175;50.140;18.990;2023-02-13T08:12:29;100458.38;;;3.58;69.35
39491;BME280;25175;50.140;18.990;2023-02-13T08:15:52;100445.97;;;3.51;69.26
39491;BME280;25175;50.140;18.990;2023-02-13T08:23:45;100497.56;;;3.66;69.76
39491;BME280;25175;50.140;18.990;2023-02-13T08:26:56;100399.25;;;3.40;69.65
39491;BME280;25175;50.140;18.990;2023-02-13T08:37:11;100468.16;;;4.00;69.60
39491;BME280;25175;50.140;18.990;2023-02-13T08:40:23;100475.34;;;4.08;69.25
39491;BME280;25175;50.140;18.990;2023-02-13T08:44:03;100462.59;;;4.16;69.24
39491;BME280;25175;50.140;18.990;2023-02-13T08:50:46;100469.78;;;4.34;68.98
39491;BME280;25175;50.140;18.990;2023-02-13T08:53:56;100466.59;;;4.31;68.56
39491;BME280;25175;50.140;18.990;2023-02-13T08:57:06;100467.88;;;4.25;68.81
39491;BME280;25175;50.140;18.990;2023-02-13T09:00:19;100471.66;;;4.32;69.21
39491;BME280;25175;50.140;18.990;2023-02-13T09:03:30;100465.16;;;4.38;69.42
39491;BME280;25175;50.140;18.990;2023-02-13T09:06:36;100186.19;;;2.78;68.89
39491;BME280;25175;50.140;18.990;2023-02-13T09:09:47;100452.03;;;4.50;69.16
39491;BME280;25175;50.140;18.990;2023-02-13T09:16:29;100463.09;;;4.63;69.41
39491;BME280;25175;50.140;18.990;2023-02-13T09:19:40;100463.78;;;4.65;69.19
39491;BME280;25175;50.140;18.990;2023-02-13T09:22:47;100467.13;;;4.67;69.29
39491;BME280;25175;50.140;18.990;2023-02-13T09:26:29;100471.25;;;4.70;69.05
39491;BME280;25175;50.140;18.990;2023-02-13T09:29:41;100499.75;;;4.71;69.28
39491;BME280;25175;50.140;18.990;2023-02-13T09:32:53;100473.00;;;4.69;68.91
39491;BME280;25175;50.140;18.990;2023-02-13T09:36:27;100484.47;;;4.67;68.91
39491;BME280;25175;50.140;18.990;2023-02-13T09:39:38;100484.59;;;4.65;69.42
39491;BME280;25175;50.140;18.990;2023-02-13T09:43:03;100469.59;;;4.69;69.89
39491;BME280;25175;50.140;18.990;2023-02-13T09:46:34;100470.50;;;4.79;69.96
39491;BME280;25175;50.140;18.990;2023-02-13T09:49:52;100461.38;;;4.84;69.94
39491;BME280;25175;50.140;18.990;2023-02-13T09:53:04;100442.34;;;4.84;70.07
39491;BME280;25175;50.140;18.990;2023-02-13T09:56:30;100466.44;;;4.97;69.44
39491;BME280;25175;50.140;18.990;2023-02-13T10:00:13;100465.22;;;5.01;69.71
39491;BME280;25175;50.140;18.990;2023-02-13T10:03:29;100458.00;;;5.04;69.39
39491;BME280;25175;50.140;18.990;2023-02-13T10:11:13;100460.97;;;5.00;68.83
39491;BME280;25175;50.140;18.990;2023-02-13T10:14:41;100455.53;;;5.03;69.04
39491;BME280;25175;50.140;18.990;2023-02-13T10:18:32;100463.78;;;5.08;68.99
39491;BME280;25175;50.140;18.990;2023-02-13T10:21:43;100423.41;;;4.93;69.21
39491;BME280;25175;50.140;18.990;2023-02-13T10:25:03;100457.34;;;5.12;68.90
39491;BME280;25175;50.140;18.990;2023-02-13T10:32:44;100444.28;;;5.23;69.33
39491;BME280;25175;50.140;18.990;2023-02-13T10:36:20;100128.63;;;3.28;69.08
39491;BME280;25175;50.140;18.990;2023-02-13T10:39:36;100404.56;;;5.00;69.28
39491;BME280;25175;50.140;18.990;2023-02-13T10:43:08;100424.88;;;5.06;69.49
39491;BME280;25175;50.140;18.990;2023-02-13T10:46:36;100432.19;;;5.12;69.27
39491;BME280;25175;50.140;18.990;2023-02-13T10:50:02;100428.31;;;5.07;69.37
39491;BME280;25175;50.140;18.990;2023-02-13T10:53:58;100411.59;;;5.09;69.55
39491;BME280;25175;50.140;18.990;2023-02-13T10:57:51;100400.38;;;5.09;69.34
39491;BME280;25175;50.140;18.990;2023-02-13T11:02:16;100395.06;;;5.10;69.51
39491;BME280;25175;50.140;18.990;2023-02-13T11:09:47;100394.91;;;5.12;69.79
39491;BME280;25175;50.140;18.990;2023-02-13T11:13:16;100390.66;;;5.11;69.54
39491;BME280;25175;50.140;18.990;2023-02-13T11:16:24;100392.56;;;5.09;69.41
39491;BME280;25175;50.140;18.990;2023-02-13T11:19:53;100384.56;;;5.01;69.17
39491;BME280;25175;50.140;18.990;2023-02-13T11:23:23;100393.59;;;4.97;69.31
39491;BME280;25175;50.140;18.990;2023-02-13T11:26:39;100399.47;;;4.99;69.82
39491;BME280;25175;50.140;18.990;2023-02-13T11:29:56;100386.25;;;5.02;69.64
39491;BME280;25175;50.140;18.990;2023-02-13T11:33:22;100384.31;;;5.04;69.76
39491;BME280;25175;50.140;18.990;2023-02-13T11:36:34;100386.81;;;5.05;70.13
39491;BME280;25175;50.140;18.990;2023-02-13T11:39:48;100371.75;;;5.09;70.17
39491;BME280;25175;50.140;18.990;2023-02-13T11:42:56;100369.84;;;5.11;69.82
39491;BME280;25175;50.140;18.990;2023-02-13T11:46:10;100369.50;;;5.15;70.06
39491;BME280;25175;50.140;18.990;2023-02-13T11:49:38;100364.56;;;5.22;69.90
39491;BME280;25175;50.140;18.990;2023-02-13T11:53:24;100358.84;;;5.28;69.70
39491;BME280;25175;50.140;18.990;2023-02-13T12:00:38;100355.38;;;5.38;69.19
39491;BME280;25175;50.140;18.990;2023-02-13T12:04:06;100363.06;;;5.40;69.50
39491;BME280;25175;50.140;18.990;2023-02-13T12:07:22;100354.13;;;5.42;69.46
39491;BME280;25175;50.140;18.990;2023-02-13T12:10:37;100363.63;;;5.43;69.45
39491;BME280;25175;50.140;18.990;2023-02-13T12:13:56;100363.47;;;5.45;69.62
39491;BME280;25175;50.140;18.990;2023-02-13T12:21:32;100355.25;;;5.40;70.10
39491;BME280;25175;50.140;18.990;2023-02-13T12:25:24;100337.16;;;5.38;70.25
39491;BME280;25175;50.140;18.990;2023-02-13T12:29:13;100338.78;;;5.39;70.51
39491;BME280;25175;50.140;18.990;2023-02-13T12:37:15;100332.09;;;5.46;70.64
39491;BME280;25175;50.140;18.990;2023-02-13T12:41:11;100333.50;;;5.50;70.58
39491;BME280;25175;50.140;18.990;2023-02-13T12:45:01;100345.56;;;5.51;70.14
39491;BME280;25175;50.140;18.990;2023-02-13T12:48:29;100346.63;;;5.49;70.13
39491;BME280;25175;50.140;18.990;2023-02-13T12:51:52;100358.84;;;5.48;70.39
39491;BME280;25175;50.140;18.990;2023-02-13T12:55:25;100344.75;;;5.51;70.29
39491;BME280;25175;50.140;18.990;2023-02-13T13:03:06;100340.34;;;5.51;70.08
39491;BME280;25175;50.140;18.990;2023-02-13T13:06:43;100348.03;;;5.53;69.85
39491;BME280;25175;50.140;18.990;2023-02-13T13:10:58;100341.19;;;5.52;69.96
39491;BME280;25175;50.140;18.990;2023-02-13T13:14:26;100338.56;;;5.52;70.05
39491;BME280;25175;50.140;18.990;2023-02-13T13:18:10;100334.34;;;5.51;69.78
39491;BME280;25175;50.140;18.990;2023-02-13T13:21:43;100332.94;;;5.47;69.70
39491;BME280;25175;50.140;18.990;2023-02-13T13:25:13;100331.97;;;5.48;69.87
39491;BME280;25175;50.140;18.990;2023-02-13T13:28:54;100336.94;;;5.51;69.67
39491;BME280;25175;50.140;18.990;2023-02-13T13:32:17;100337.75;;;5.51;69.88
39491;BME280;25175;50.140;18.990;2023-02-13T13:35:52;100334.47;;;5.49;69.90
39491;BME280;25175;50.140;18.990;2023-02-13T13:39:31;100335.91;;;5.42;69.95
39491;BME280;25175;50.140;18.990;2023-02-13T13:42:54;100298.59;;;5.02;70.05
39491;BME280;25175;50.140;18.990;2023-02-13T13:46:33;100341.28;;;5.41;70.09
39491;BME280;25175;50.140;18.990;2023-02-13T13:50:12;100343.88;;;5.41;69.98
39491;BME280;25175;50.140;18.990;2023-02-13T13:53:30;100340.19;;;5.43;70.12
39491;BME280;25175;50.140;18.990;2023-02-13T13:57:05;100329.47;;;5.37;69.81
39491;BME280;25175;50.140;18.990;2023-02-13T14:04:37;100330.88;;;5.50;70.09
39491;BME280;25175;50.140;18.990;2023-02-13T14:12:43;100330.06;;;5.50;69.83
39491;BME280;25175;50.140;18.990;2023-02-13T14:16:10;100329.63;;;5.45;69.83
39491;BME280;25175;50.140;18.990;2023-02-13T14:19:31;100331.53;;;5.43;70.00
39491;BME280;25175;50.140;18.990;2023-02-13T14:22:48;100324.56;;;5.43;69.94
39491;BME280;25175;50.140;18.990;2023-02-13T14:26:10;100264.97;;;5.10;69.95
39491;BME280;25175;50.140;18.990;2023-02-13T14:29:33;100328.81;;;5.44;70.00
39491;BME280;25175;50.140;18.990;2023-02-13T14:32:53;100331.13;;;5.47;69.73
39491;BME280;25175;50.140;18.990;2023-02-13T14:39:35;100326.53;;;5.51;69.17
39491;BME280;25175;50.140;18.990;2023-02-13T14:43:28;100334.66;;;5.37;68.85
39491;BME280;25175;50.140;18.990;2023-02-13T14:46:45;100341.16;;;5.22;68.11
39491;BME280;25175;50.140;18.990;2023-02-13T14:50:01;100338.19;;;5.06;67.84
39491;BME280;25175;50.140;18.990;2023-02-13T14:53:46;100323.88;;;4.91;67.92
39491;BME280;25175;50.140;18.990;2023-02-13T14:57:05;100324.84;;;4.79;67.84
39491;BME280;25175;50.140;18.990;2023-02-13T15:00:24;100320.53;;;4.68;67.88
39491;BME280;25175;50.140;18.990;2023-02-13T15:03:45;100331.44;;;4.62;68.41
39491;BME280;25175;50.140;18.990;2023-02-13T15:07:03;100312.41;;;4.62;68.20
39491;BME280;25175;50.140;18.990;2023-02-13T15:10:35;100316.09;;;4.59;68.59
39491;BME280;25175;50.140;18.990;2023-02-13T15:14:29;100311.50;;;4.63;68.39
39491;BME280;25175;50.140;18.990;2023-02-13T15:17:38;100312.06;;;4.66;68.53
39491;BME280;25175;50.140;18.990;2023-02-13T15:20:54;100311.66;;;4.71;68.40
39491;BME280;25175;50.140;18.990;2023-02-13T15:24:13;100316.38;;;4.77;68.01
39491;BME280;25175;50.140;18.990;2023-02-13T15:27:25;100304.88;;;4.79;68.11
39491;BME280;25175;50.140;18.990;2023-02-13T15:30:36;100301.16;;;4.72;68.14
39491;BME280;25175;50.140;18.990;2023-02-13T15:33:47;100306.00;;;4.86;67.97
39491;BME280;25175;50.140;18.990;2023-02-13T15:37:17;100310.03;;;4.90;68.18
39491;BME280;25175;50.140;18.990;2023-02-13T15:40:36;100223.28;;;4.50;67.92
39491;BME280;25175;50.140;18.990;2023-02-13T15:43:54;100304.88;;;5.00;67.60
39491;BME280;25175;50.140;18.990;2023-02-13T15:47:08;100299.44;;;5.03;67.70
39491;BME280;25175;50.140;18.990;2023-02-13T15:50:44;100309.72;;;5.04;67.51
39491;BME280;25175;50.140;18.990;2023-02-13T15:54:28;100317.53;;;5.04;67.74
39491;BME280;25175;50.140;18.990;2023-02-13T15:57:56;100311.47;;;5.04;67.58
39491;BME280;25175;50.140;18.990;2023-02-13T16:01:09;100304.88;;;5.00;66.97
39491;BME280;25175;50.140;18.990;2023-02-13T16:04:18;100311.31;;;4.96;66.88
39491;BME280;25175;50.140;18.990;2023-02-13T16:07:55;100310.84;;;4.91;66.98
39491;BME280;25175;50.140;18.990;2023-02-13T16:11:38;100305.22;;;4.86;67.07
39491;BME280;25175;50.140;18.990;2023-02-13T16:14:51;100312.44;;;4.82;66.58
39491;BME280;25175;50.140;18.990;2023-02-13T16:18:04;100316.47;;;4.75;66.47
39491;BME280;25175;50.140;18.990;2023-02-13T16:21:31;99908.88;;;2.14;66.28
39491;BME280;25175;50.140;18.990;2023-02-13T16:24:39;100321.63;;;4.66;66.64
39491;BME280;25175;50.140;18.990;2023-02-13T16:28:16;100320.94;;;4.64;66.36
39491;BME280;25175;50.140;18.990;2023-02-13T16:31:27;100326.94;;;4.64;66.45
39491;BME280;25175;50.140;18.990;2023-02-13T16:34:41;100308.94;;;4.52;66.30
39491;BME280;25175;50.140;18.990;2023-02-13T16:38:22;100324.28;;;4.55;66.55
39491;BME280;25175;50.140;18.990;2023-02-13T16:42:00;100330.44;;;4.54;66.79
39491;BME280;25175;50.140;18.990;2023-02-13T16:45:24;100336.06;;;4.59;66.79
39491;BME280;25175;50.140;18.990;2023-02-13T16:48:38;100339.38;;;4.61;66.35
39491;BME280;25175;50.140;18.990;2023-02-13T16:51:51;100343.88;;;4.59;66.52
39491;BME280;25175;50.140;18.990;2023-02-13T16:55:02;100329.59;;;4.53;66.27
39491;BME280;25175;50.140;18.990;2023-02-13T16:58:20;100341.00;;;4.62;65.90
39491;BME280;25175;50.140;18.990;2023-02-13T17:01:37;100354.16;;;4.60;65.52
39491;BME280;25175;50.140;18.990;2023-02-13T17:04:47;100345.06;;;4.55;65.32
39491;BME280;25175;50.140;18.990;2023-02-13T17:08:00;100325.91;;;4.56;65.45
39491;BME280;25175;50.140;18.990;2023-02-13T17:11:18;100307.72;;;4.56;64.78
39491;BME280;25175;50.140;18.990;2023-02-13T17:14:33;100304.22;;;4.46;65.33
39491;BME280;25175;50.140;18.990;2023-02-13T17:17:45;100312.22;;;4.54;64.63
39491;BME280;25175;50.140;18.990;2023-02-13T17:22:27;100300.88;;;4.55;64.70
39491;BME280;25175;50.140;18.990;2023-02-13T17:25:57;100298.28;;;4.55;64.04
39491;BME280;25175;50.140;18.990;2023-02-13T17:29:06;100295.00;;;4.53;63.80
39491;BME280;25175;50.140;18.990;2023-02-13T17:37:17;100291.38;;;4.44;64.28
39491;BME280;25175;50.140;18.990;2023-02-13T17:46:08;100277.00;;;4.29;64.10
39491;BME280;25175;50.140;18.990;2023-02-13T17:58:50;100264.69;;;4.31;64.47
39491;BME280;25175;50.140;18.990;2023-02-13T18:03:03;100276.13;;;4.40;64.77
39491;BME280;25175;50.140;18.990;2023-02-13T18:06:52;100269.16;;;4.40;64.86
39491;BME280;25175;50.140;18.990;2023-02-13T18:14:53;100291.22;;;4.46;65.28
39491;BME280;25175;50.140;18.990;2023-02-13T18:27:52;100270.63;;;4.54;65.61
39491;BME280;25175;50.140;18.990;2023-02-13T18:31:40;100269.09;;;4.51;65.73
39491;BME280;25175;50.140;18.990;2023-02-13T18:52:30;100347.47;;;4.47;66.71
39491;BME280;25175;50.140;18.990;2023-02-13T19:04:43;100309.56;;;4.44;66.98
39491;BME280;25175;50.140;18.990;2023-02-13T19:08:57;100380.53;;;4.45;66.99
39491;BME280;25175;50.140;18.990;2023-02-13T19:12:55;100324.31;;;4.44;66.93
39491;BME280;25175;50.140;18.990;2023-02-13T19:16:22;100320.88;;;4.43;66.93
39491;BME280;25175;50.140;18.990;2023-02-13T19:19:52;100330.47;;;4.43;66.63
39491;BME280;25175;50.140;18.990;2023-02-13T19:23:34;100339.91;;;4.44;66.54
39491;BME280;25175;50.140;18.990;2023-02-13T19:27:17;100338.00;;;4.46;66.56
39491;BME280;25175;50.140;18.990;2023-02-13T19:30:34;100351.59;;;4.49;66.17
39491;BME280;25175;50.140;18.990;2023-02-13T19:33:58;100343.66;;;4.51;66.35
39491;BME280;25175;50.140;18.990;2023-02-13T19:38:11;100345.34;;;4.52;66.12
39491;BME280;25175;50.140;18.990;2023-02-13T20:17:52;100360.56;;;4.56;65.82
39491;BME280;25175;50.140;18.990;2023-02-13T20:34:50;100386.00;;;4.73;65.37
39491;BME280;25175;50.140;18.990;2023-02-13T20:38:25;100389.56;;;4.72;65.10
39491;BME280;25175;50.140;18.990;2023-02-13T20:58:30;100383.84;;;4.78;64.76
39491;BME280;25175;50.140;18.990;2023-02-13T21:06:41;100379.81;;;4.85;64.89
39491;BME280;25175;50.140;18.990;2023-02-13T21:27:52;100370.03;;;4.78;65.48
39491;BME280;25175;50.140;18.990;2023-02-13T21:40:15;100367.13;;;4.71;66.13
39491;BME280;25175;50.140;18.990;2023-02-13T21:43:52;100348.69;;;4.63;65.70
39491;BME280;25175;50.140;18.990;2023-02-13T21:46:59;100366.41;;;4.69;66.06
39491;BME280;25175;50.140;18.990;2023-02-13T21:50:34;100353.50;;;4.68;66.11
39491;BME280;25175;50.140;18.990;2023-02-13T21:53:54;100357.34;;;4.64;66.43
39491;BME280;25175;50.140;18.990;2023-02-13T21:57:10;100346.22;;;4.62;66.40
39491;BME280;25175;50.140;18.990;2023-02-13T22:00:20;100344.56;;;4.61;66.57
39491;BME280;25175;50.140;18.990;2023-02-13T22:03:27;100346.47;;;4.59;66.79
39491;BME280;25175;50.140;18.990;2023-02-13T22:07:16;100344.22;;;4.54;66.76
39491;BME280;25175;50.140;18.990;2023-02-13T22:10:27;100344.63;;;4.50;67.02
39491;BME280;25175;50.140;18.990;2023-02-13T22:13:41;100335.84;;;4.51;67.06